sensor_id;sensor_type;location;lat;lon;timestamp;P1;durP1;ratioP1;P2;durP2;ratioP2
43519;SDS011;46848;51.980;5.918;2023-11-19T00:02:07;8.32;;;7.18;;
43519;SDS011;46848;51.980;5.918;2023-11-19T00:04:36;7.80;;;6.68;;
43519;SDS011;46848;51.980;5.918;2023-11-19T00:07:02;8.80;;;7.32;;
43519;SDS011;46848;51.980;5.918;2023-11-19T00:09:30;10.20;;;8.30;;
43519;SDS011;46848;51.980;5.918;2023-11-19T00:11:56;10.90;;;8.15;;
43519;SDS011;46848;51.980;5.918;2023-11-19T00:14:22;11.85;;;8.65;;
43519;SDS011;46848;51.980;5.918;2023-11-19T00:16:49;10.63;;;7.93;;
43519;SDS011;46848;51.980;5.918;2023-11-19T00:19:16;10.23;;;8.73;;
43519;SDS011;46848;51.980;5.918;2023-11-19T00:21:41;10.07;;;8.60;;
43519;SDS011;46848;51.980;5.918;2023-11-19T00:24:07;11.75;;;7.70;;
43519;SDS011;46848;51.980;5.918;2023-11-19T00:26:33;10.30;;;7.28;;
43519;SDS011;46848;51.980;5.918;2023-11-19T00:28:59;11.55;;;7.32;;
43519;SDS011;46848;51.980;5.918;2023-11-19T00:31:25;10.10;;;7.10;;
43519;SDS011;46848;51.980;5.918;2023-11-19T00:33:52;8.93;;;6.63;;
43519;SDS011;46848;51.980;5.918;2023-11-19T00:36:18;10.45;;;6.63;;
43519;SDS011;46848;51.980;5.918;2023-11-19T00:38:44;7.57;;;6.00;;
43519;SDS011;46848;51.980;5.918;2023-11-19T00:41:10;8.20;;;6.28;;
43519;SDS011;46848;51.980;5.918;2023-11-19T00:43:35;13.30;;;7.10;;
43519;SDS011;46848;51.980;5.918;2023-11-19T00:46:01;10.32;;;6.60;;
43519;SDS011;46848;51.980;5.918;2023-11-19T00:48:28;13.80;;;6.75;;
43519;SDS011;46848;51.980;5.918;2023-11-19T00:50:54;12.43;;;6.28;;
43519;SDS011;46848;51.980;5.918;2023-11-19T00:53:19;9.05;;;5.47;;
43519;SDS011;46848;51.980;5.918;2023-11-19T00:55:45;9.73;;;5.72;;
43519;SDS011;46848;51.980;5.918;2023-11-19T00:58:10;14.68;;;6.28;;
43519;SDS011;46848;51.980;5.918;2023-11-19T01:00:36;9.10;;;4.90;;
43519;SDS011;46848;51.980;5.918;2023-11-19T01:03:01;13.20;;;5.30;;
43519;SDS011;46848;51.980;5.918;2023-11-19T01:05:27;10.32;;;4.72;;
43519;SDS011;46848;51.980;5.918;2023-11-19T01:07:53;8.27;;;4.15;;
43519;SDS011;46848;51.980;5.918;2023-11-19T01:10:20;11.43;;;4.18;;
43519;SDS011;46848;51.980;5.918;2023-11-19T01:12:46;14.82;;;4.57;;
43519;SDS011;46848;51.980;5.918;2023-11-19T01:15:11;14.85;;;4.55;;
43519;SDS011;46848;51.980;5.918;2023-11-19T01:17:38;12.55;;;3.60;;
43519;SDS011;46848;51.980;5.918;2023-11-19T01:20:04;12.52;;;4.30;;
43519;SDS011;46848;51.980;5.918;2023-11-19T01:22:32;14.57;;;4.50;;
43519;SDS011;46848;51.980;5.918;2023-11-19T01:24:58;12.40;;;3.97;;
43519;SDS011;46848;51.980;5.918;2023-11-19T01:27:24;13.93;;;4.00;;
43519;SDS011;46848;51.980;5.918;2023-11-19T01:29:49;14.38;;;3.85;;
43519;SDS011;46848;51.980;5.918;2023-11-19T01:32:15;12.60;;;3.17;;
43519;SDS011;46848;51.980;5.918;2023-11-19T01:34:41;15.43;;;3.70;;
43519;SDS011;46848;51.980;5.918;2023-11-19T01:37:06;8.25;;;2.67;;
43519;SDS011;46848;51.980;5.918;2023-11-19T01:39:34;14.20;;;3.85;;
43519;SDS011;46848;51.980;5.918;2023-11-19T01:42:00;18.83;;;4.15;;
43519;SDS011;46848;51.980;5.918;2023-11-19T01:44:25;18.98;;;3.95;;
43519;SDS011;46848;51.980;5.918;2023-11-19T01:46:51;20.15;;;4.32;;
43519;SDS011;46848;51.980;5.918;2023-11-19T01:49:17;14.48;;;3.85;;
43519;SDS011;46848;51.980;5.918;2023-11-19T01:51:44;16.30;;;3.67;;
43519;SDS011;46848;51.980;5.918;2023-11-19T01:54:11;17.92;;;3.85;;
43519;SDS011;46848;51.980;5.918;2023-11-19T01:56:38;15.18;;;3.80;;
43519;SDS011;46848;51.980;5.918;2023-11-19T01:59:05;20.58;;;4.72;;
43519;SDS011;46848;51.980;5.918;2023-11-19T02:01:34;20.35;;;4.72;;
43519;SDS011;46848;51.980;5.918;2023-11-19T02:04:04;18.15;;;3.47;;
43519;SDS011;46848;51.980;5.918;2023-11-19T02:06:31;16.00;;;3.35;;
43519;SDS011;46848;51.980;5.918;2023-11-19T02:08:59;21.42;;;3.92;;
43519;SDS011;46848;51.980;5.918;2023-11-19T02:11:25;15.02;;;3.13;;
43519;SDS011;46848;51.980;5.918;2023-11-19T02:13:54;19.40;;;4.28;;
43519;SDS011;46848;51.980;5.918;2023-11-19T02:16:20;19.83;;;4.18;;
43519;SDS011;46848;51.980;5.918;2023-11-19T02:18:46;24.25;;;4.05;;
43519;SDS011;46848;51.980;5.918;2023-11-19T02:21:13;23.80;;;5.47;;
43519;SDS011;46848;51.980;5.918;2023-11-19T02:23:40;18.75;;;4.57;;
43519;SDS011;46848;51.980;5.918;2023-11-19T02:28:42;24.80;;;4.90;;
43519;SDS011;46848;51.980;5.918;2023-11-19T02:31:08;31.27;;;5.72;;
43519;SDS011;46848;51.980;5.918;2023-11-19T02:33:38;28.17;;;4.72;;
43519;SDS011;46848;51.980;5.918;2023-11-19T02:36:07;26.63;;;5.22;;
43519;SDS011;46848;51.980;5.918;2023-11-19T02:38:33;16.25;;;3.40;;
43519;SDS011;46848;51.980;5.918;2023-11-19T02:41:02;19.17;;;4.07;;
43519;SDS011;46848;51.980;5.918;2023-11-19T02:43:31;20.50;;;4.45;;
43519;SDS011;46848;51.980;5.918;2023-11-19T02:46:03;26.25;;;5.57;;
43519;SDS011;46848;51.980;5.918;2023-11-19T02:48:32;23.83;;;5.05;;
43519;SDS011;46848;51.980;5.918;2023-11-19T02:51:00;21.65;;;4.35;;
43519;SDS011;46848;51.980;5.918;2023-11-19T02:53:26;19.13;;;3.65;;
43519;SDS011;46848;51.980;5.918;2023-11-19T02:55:53;23.25;;;3.83;;
43519;SDS011;46848;51.980;5.918;2023-11-19T03:00:53;26.60;;;5.50;;
43519;SDS011;46848;51.980;5.918;2023-11-19T03:03:23;26.35;;;5.28;;
43519;SDS011;46848;51.980;5.918;2023-11-19T03:05:53;25.95;;;4.60;;
43519;SDS011;46848;51.980;5.918;2023-11-19T03:08:20;23.27;;;5.03;;
43519;SDS011;46848;51.980;5.918;2023-11-19T03:10:45;18.50;;;4.03;;
43519;SDS011;46848;51.980;5.918;2023-11-19T03:13:12;23.75;;;5.18;;
43519;SDS011;46848;51.980;5.918;2023-11-19T03:15:39;20.73;;;4.20;;
43519;SDS011;46848;51.980;5.918;2023-11-19T03:18:05;21.20;;;5.03;;
43519;SDS011;46848;51.980;5.918;2023-11-19T03:20:30;17.55;;;4.32;;
43519;SDS011;46848;51.980;5.918;2023-11-19T03:22:56;21.80;;;3.95;;
43519;SDS011;46848;51.980;5.918;2023-11-19T03:25:24;20.80;;;4.25;;
43519;SDS011;46848;51.980;5.918;2023-11-19T03:27:51;19.40;;;3.95;;
43519;SDS011;46848;51.980;5.918;2023-11-19T03:30:18;23.27;;;4.60;;
43519;SDS011;46848;51.980;5.918;2023-11-19T03:32:45;22.55;;;4.55;;
43519;SDS011;46848;51.980;5.918;2023-11-19T03:35:11;21.42;;;4.32;;
43519;SDS011;46848;51.980;5.918;2023-11-19T03:37:37;21.75;;;4.72;;
43519;SDS011;46848;51.980;5.918;2023-11-19T03:40:04;21.50;;;4.47;;
43519;SDS011;46848;51.980;5.918;2023-11-19T03:42:31;21.08;;;4.65;;
43519;SDS011;46848;51.980;5.918;2023-11-19T03:44:56;24.58;;;4.47;;
43519;SDS011;46848;51.980;5.918;2023-11-19T03:47:23;22.50;;;4.50;;
43519;SDS011;46848;51.980;5.918;2023-11-19T03:49:49;22.02;;;5.07;;
43519;SDS011;46848;51.980;5.918;2023-11-19T03:52:15;27.25;;;4.75;;
43519;SDS011;46848;51.980;5.918;2023-11-19T03:54:42;18.98;;;4.18;;
43519;SDS011;46848;51.980;5.918;2023-11-19T03:57:07;27.55;;;5.05;;
43519;SDS011;46848;51.980;5.918;2023-11-19T03:59:35;26.20;;;5.30;;
43519;SDS011;46848;51.980;5.918;2023-11-19T04:02:01;28.50;;;5.22;;
43519;SDS011;46848;51.980;5.918;2023-11-19T04:04:27;19.20;;;4.85;;
43519;SDS011;46848;51.980;5.918;2023-11-19T04:06:54;29.02;;;5.60;;
43519;SDS011;46848;51.980;5.918;2023-11-19T04:09:20;24.90;;;4.88;;
43519;SDS011;46848;51.980;5.918;2023-11-19T04:11:46;21.33;;;4.80;;
43519;SDS011;46848;51.980;5.918;2023-11-19T04:14:15;24.80;;;4.85;;
43519;SDS011;46848;51.980;5.918;2023-11-19T04:16:43;28.80;;;6.05;;
43519;SDS011;46848;51.980;5.918;2023-11-19T04:19:10;24.70;;;4.93;;
43519;SDS011;46848;51.980;5.918;2023-11-19T04:21:36;21.45;;;5.03;;
43519;SDS011;46848;51.980;5.918;2023-11-19T04:24:01;26.42;;;5.68;;
43519;SDS011;46848;51.980;5.918;2023-11-19T04:26:27;22.25;;;4.53;;
43519;SDS011;46848;51.980;5.918;2023-11-19T04:28:53;28.67;;;5.13;;
43519;SDS011;46848;51.980;5.918;2023-11-19T04:31:18;27.58;;;5.57;;
43519;SDS011;46848;51.980;5.918;2023-11-19T04:33:44;26.52;;;5.40;;
43519;SDS011;46848;51.980;5.918;2023-11-19T04:36:10;28.13;;;5.95;;
43519;SDS011;46848;51.980;5.918;2023-11-19T04:38:36;22.00;;;5.53;;
43519;SDS011;46848;51.980;5.918;2023-11-19T04:41:03;24.38;;;5.15;;
43519;SDS011;46848;51.980;5.918;2023-11-19T04:43:30;26.33;;;5.40;;
43519;SDS011;46848;51.980;5.918;2023-11-19T04:45:56;28.10;;;5.22;;
43519;SDS011;46848;51.980;5.918;2023-11-19T04:48:22;26.77;;;4.82;;
43519;SDS011;46848;51.980;5.918;2023-11-19T04:50:48;28.55;;;5.93;;
43519;SDS011;46848;51.980;5.918;2023-11-19T04:53:15;27.63;;;5.88;;
43519;SDS011;46848;51.980;5.918;2023-11-19T04:55:41;25.90;;;5.47;;
43519;SDS011;46848;51.980;5.918;2023-11-19T04:58:06;25.23;;;5.85;;
43519;SDS011;46848;51.980;5.918;2023-11-19T05:00:32;30.27;;;5.50;;
43519;SDS011;46848;51.980;5.918;2023-11-19T05:02:57;33.80;;;5.50;;
43519;SDS011;46848;51.980;5.918;2023-11-19T05:05:23;26.27;;;6.05;;
43519;SDS011;46848;51.980;5.918;2023-11-19T05:07:49;25.23;;;5.65;;
43519;SDS011;46848;51.980;5.918;2023-11-19T05:10:14;26.50;;;5.03;;
43519;SDS011;46848;51.980;5.918;2023-11-19T05:12:40;24.23;;;4.88;;
43519;SDS011;46848;51.980;5.918;2023-11-19T05:15:06;30.48;;;5.97;;
43519;SDS011;46848;51.980;5.918;2023-11-19T05:17:32;20.13;;;4.60;;
43519;SDS011;46848;51.980;5.918;2023-11-19T05:19:58;23.75;;;5.78;;
43519;SDS011;46848;51.980;5.918;2023-11-19T05:22:24;24.80;;;4.90;;
43519;SDS011;46848;51.980;5.918;2023-11-19T05:24:51;24.20;;;5.00;;
43519;SDS011;46848;51.980;5.918;2023-11-19T05:27:16;27.80;;;5.32;;
43519;SDS011;46848;51.980;5.918;2023-11-19T05:29:42;24.63;;;4.82;;
43519;SDS011;46848;51.980;5.918;2023-11-19T05:32:08;22.80;;;5.40;;
43519;SDS011;46848;51.980;5.918;2023-11-19T05:34:34;27.25;;;5.88;;
43519;SDS011;46848;51.980;5.918;2023-11-19T05:37:00;29.17;;;5.65;;
43519;SDS011;46848;51.980;5.918;2023-11-19T05:39:26;28.08;;;5.10;;
43519;SDS011;46848;51.980;5.918;2023-11-19T05:41:52;21.40;;;5.50;;
43519;SDS011;46848;51.980;5.918;2023-11-19T05:44:18;30.92;;;6.57;;
43519;SDS011;46848;51.980;5.918;2023-11-19T05:46:44;32.40;;;6.20;;
43519;SDS011;46848;51.980;5.918;2023-11-19T05:49:10;28.02;;;5.30;;
43519;SDS011;46848;51.980;5.918;2023-11-19T05:51:37;29.00;;;5.63;;
43519;SDS011;46848;51.980;5.918;2023-11-19T05:54:04;29.33;;;5.63;;
43519;SDS011;46848;51.980;5.918;2023-11-19T05:56:33;29.13;;;5.68;;
43519;SDS011;46848;51.980;5.918;2023-11-19T05:58:59;23.05;;;4.72;;
43519;SDS011;46848;51.980;5.918;2023-11-19T06:01:32;24.50;;;5.10;;
43519;SDS011;46848;51.980;5.918;2023-11-19T06:03:59;24.80;;;5.30;;
43519;SDS011;46848;51.980;5.918;2023-11-19T06:06:26;20.80;;;4.90;;
43519;SDS011;46848;51.980;5.918;2023-11-19T06:08:52;21.73;;;4.40;;
43519;SDS011;46848;51.980;5.918;2023-11-19T06:11:17;28.75;;;5.82;;
43519;SDS011;46848;51.980;5.918;2023-11-19T06:13:45;29.02;;;5.45;;
43519;SDS011;46848;51.980;5.918;2023-11-19T06:16:11;27.15;;;5.57;;
43519;SDS011;46848;51.980;5.918;2023-11-19T06:18:37;25.23;;;6.20;;
43519;SDS011;46848;51.980;5.918;2023-11-19T06:21:03;34.50;;;6.22;;
43519;SDS011;46848;51.980;5.918;2023-11-19T06:23:28;36.53;;;7.22;;
43519;SDS011;46848;51.980;5.918;2023-11-19T06:25:54;28.90;;;6.32;;
43519;SDS011;46848;51.980;5.918;2023-11-19T06:28:19;30.60;;;6.35;;
43519;SDS011;46848;51.980;5.918;2023-11-19T06:30:45;27.92;;;6.00;;
43519;SDS011;46848;51.980;5.918;2023-11-19T06:33:14;27.65;;;6.03;;
43519;SDS011;46848;51.980;5.918;2023-11-19T06:35:40;28.75;;;5.88;;
43519;SDS011;46848;51.980;5.918;2023-11-19T06:38:06;26.92;;;5.47;;
43519;SDS011;46848;51.980;5.918;2023-11-19T06:40:32;30.95;;;6.28;;
43519;SDS011;46848;51.980;5.918;2023-11-19T06:42:58;23.77;;;6.25;;
43519;SDS011;46848;51.980;5.918;2023-11-19T06:45:23;22.42;;;4.22;;
43519;SDS011;46848;51.980;5.918;2023-11-19T06:47:49;33.55;;;6.20;;
43519;SDS011;46848;51.980;5.918;2023-11-19T06:50:15;33.42;;;5.97;;
43519;SDS011;46848;51.980;5.918;2023-11-19T06:52:41;30.15;;;5.70;;
43519;SDS011;46848;51.980;5.918;2023-11-19T06:55:07;28.17;;;5.82;;
43519;SDS011;46848;51.980;5.918;2023-11-19T06:57:33;32.63;;;6.20;;
43519;SDS011;46848;51.980;5.918;2023-11-19T06:59:59;33.05;;;6.57;;
43519;SDS011;46848;51.980;5.918;2023-11-19T07:02:24;28.40;;;5.32;;
43519;SDS011;46848;51.980;5.918;2023-11-19T07:04:50;22.10;;;5.43;;
43519;SDS011;46848;51.980;5.918;2023-11-19T07:07:16;28.23;;;5.15;;
43519;SDS011;46848;51.980;5.918;2023-11-19T07:09:42;26.13;;;5.28;;
43519;SDS011;46848;51.980;5.918;2023-11-19T07:12:08;20.75;;;4.65;;
43519;SDS011;46848;51.980;5.918;2023-11-19T07:14:33;31.73;;;5.53;;
43519;SDS011;46848;51.980;5.918;2023-11-19T07:16:59;26.88;;;5.65;;
43519;SDS011;46848;51.980;5.918;2023-11-19T07:19:25;22.88;;;5.85;;
43519;SDS011;46848;51.980;5.918;2023-11-19T07:21:51;28.98;;;4.97;;
43519;SDS011;46848;51.980;5.918;2023-11-19T07:24:19;27.73;;;5.65;;
43519;SDS011;46848;51.980;5.918;2023-11-19T07:26:46;24.05;;;4.90;;
43519;SDS011;46848;51.980;5.918;2023-11-19T07:29:13;27.02;;;5.88;;
43519;SDS011;46848;51.980;5.918;2023-11-19T07:31:40;28.48;;;5.90;;
43519;SDS011;46848;51.980;5.918;2023-11-19T07:34:05;35.78;;;6.80;;
43519;SDS011;46848;51.980;5.918;2023-11-19T07:36:31;36.22;;;6.47;;
43519;SDS011;46848;51.980;5.918;2023-11-19T07:38:57;30.67;;;5.90;;
43519;SDS011;46848;51.980;5.918;2023-11-19T07:41:23;37.75;;;6.93;;
43519;SDS011;46848;51.980;5.918;2023-11-19T07:43:50;28.02;;;5.05;;
43519;SDS011;46848;51.980;5.918;2023-11-19T07:46:16;35.00;;;6.10;;
43519;SDS011;46848;51.980;5.918;2023-11-19T07:48:44;32.70;;;5.57;;
43519;SDS011;46848;51.980;5.918;2023-11-19T07:51:12;25.27;;;5.57;;
43519;SDS011;46848;51.980;5.918;2023-11-19T07:53:38;32.80;;;5.70;;
43519;SDS011;46848;51.980;5.918;2023-11-19T07:56:05;35.90;;;6.13;;
43519;SDS011;46848;51.980;5.918;2023-11-19T07:58:31;30.90;;;5.65;;
43519;SDS011;46848;51.980;5.918;2023-11-19T08:00:57;26.63;;;6.47;;
43519;SDS011;46848;51.980;5.918;2023-11-19T08:03:23;27.70;;;4.57;;
43519;SDS011;46848;51.980;5.918;2023-11-19T08:05:48;25.98;;;4.45;;
43519;SDS011;46848;51.980;5.918;2023-11-19T08:08:14;28.25;;;5.72;;
43519;SDS011;46848;51.980;5.918;2023-11-19T08:10:40;29.08;;;6.50;;
43519;SDS011;46848;51.980;5.918;2023-11-19T08:13:06;37.40;;;6.60;;
43519;SDS011;46848;51.980;5.918;2023-11-19T08:15:32;28.10;;;5.43;;
43519;SDS011;46848;51.980;5.918;2023-11-19T08:17:58;31.92;;;5.80;;
43519;SDS011;46848;51.980;5.918;2023-11-19T08:20:23;26.13;;;5.95;;
43519;SDS011;46848;51.980;5.918;2023-11-19T08:22:49;25.35;;;5.95;;
43519;SDS011;46848;51.980;5.918;2023-11-19T08:25:15;29.35;;;5.97;;
43519;SDS011;46848;51.980;5.918;2023-11-19T08:27:40;27.50;;;5.20;;
43519;SDS011;46848;51.980;5.918;2023-11-19T08:30:06;37.47;;;6.88;;
43519;SDS011;46848;51.980;5.918;2023-11-19T08:32:32;35.42;;;6.40;;
43519;SDS011;46848;51.980;5.918;2023-11-19T08:34:58;25.33;;;5.70;;
43519;SDS011;46848;51.980;5.918;2023-11-19T08:37:23;34.05;;;6.13;;
43519;SDS011;46848;51.980;5.918;2023-11-19T08:39:49;33.10;;;5.32;;
43519;SDS011;46848;51.980;5.918;2023-11-19T08:42:16;33.47;;;5.68;;
43519;SDS011;46848;51.980;5.918;2023-11-19T08:44:42;30.75;;;5.70;;
43519;SDS011;46848;51.980;5.918;2023-11-19T08:47:08;32.75;;;6.72;;
43519;SDS011;46848;51.980;5.918;2023-11-19T08:49:34;36.15;;;6.72;;
43519;SDS011;46848;51.980;5.918;2023-11-19T08:52:00;26.85;;;5.45;;
43519;SDS011;46848;51.980;5.918;2023-11-19T08:54:26;33.38;;;7.03;;
43519;SDS011;46848;51.980;5.918;2023-11-19T08:56:51;36.35;;;6.47;;
43519;SDS011;46848;51.980;5.918;2023-11-19T08:59:17;29.20;;;5.30;;
43519;SDS011;46848;51.980;5.918;2023-11-19T09:01:44;31.15;;;5.78;;
43519;SDS011;46848;51.980;5.918;2023-11-19T09:04:09;31.50;;;8.10;;
43519;SDS011;46848;51.980;5.918;2023-11-19T09:06:35;27.05;;;5.78;;
43519;SDS011;46848;51.980;5.918;2023-11-19T09:09:01;26.10;;;6.00;;
43519;SDS011;46848;51.980;5.918;2023-11-19T09:11:30;24.75;;;6.00;;
43519;SDS011;46848;51.980;5.918;2023-11-19T09:13:56;31.83;;;6.72;;
43519;SDS011;46848;51.980;5.918;2023-11-19T09:16:22;29.25;;;5.97;;
43519;SDS011;46848;51.980;5.918;2023-11-19T09:18:48;38.78;;;7.95;;
43519;SDS011;46848;51.980;5.918;2023-11-19T09:21:13;33.63;;;6.93;;
43519;SDS011;46848;51.980;5.918;2023-11-19T09:23:39;28.63;;;6.60;;
43519;SDS011;46848;51.980;5.918;2023-11-19T09:26:08;38.78;;;7.85;;
43519;SDS011;46848;51.980;5.918;2023-11-19T09:28:35;33.53;;;7.32;;
43519;SDS011;46848;51.980;5.918;2023-11-19T09:31:01;33.05;;;6.68;;
43519;SDS011;46848;51.980;5.918;2023-11-19T09:33:29;27.67;;;5.65;;
43519;SDS011;46848;51.980;5.918;2023-11-19T09:35:55;31.98;;;6.13;;
43519;SDS011;46848;51.980;5.918;2023-11-19T09:38:21;34.72;;;6.75;;
43519;SDS011;46848;51.980;5.918;2023-11-19T09:40:47;30.58;;;6.60;;
43519;SDS011;46848;51.980;5.918;2023-11-19T09:43:13;25.83;;;5.13;;
43519;SDS011;46848;51.980;5.918;2023-11-19T09:45:46;26.52;;;5.50;;
43519;SDS011;46848;51.980;5.918;2023-11-19T09:48:16;33.47;;;6.63;;
43519;SDS011;46848;51.980;5.918;2023-11-19T09:50:43;38.70;;;7.40;;
43519;SDS011;46848;51.980;5.918;2023-11-19T09:53:13;34.40;;;8.18;;
43519;SDS011;46848;51.980;5.918;2023-11-19T09:55:39;37.85;;;10.40;;
43519;SDS011;46848;51.980;5.918;2023-11-19T09:58:06;61.25;;;16.73;;
43519;SDS011;46848;51.980;5.918;2023-11-19T10:00:32;42.58;;;12.50;;
43519;SDS011;46848;51.980;5.918;2023-11-19T10:02:59;34.45;;;7.80;;
43519;SDS011;46848;51.980;5.918;2023-11-19T10:05:25;30.25;;;6.90;;
43519;SDS011;46848;51.980;5.918;2023-11-19T10:07:51;31.88;;;6.63;;
43519;SDS011;46848;51.980;5.918;2023-11-19T10:10:17;33.20;;;7.25;;
43519;SDS011;46848;51.980;5.918;2023-11-19T10:12:47;27.70;;;5.88;;
43519;SDS011;46848;51.980;5.918;2023-11-19T10:15:22;28.48;;;5.05;;
43519;SDS011;46848;51.980;5.918;2023-11-19T10:17:50;28.92;;;6.32;;
43519;SDS011;46848;51.980;5.918;2023-11-19T10:20:16;34.10;;;6.15;;
43519;SDS011;46848;51.980;5.918;2023-11-19T10:22:42;23.95;;;4.97;;
43519;SDS011;46848;51.980;5.918;2023-11-19T10:27:51;28.55;;;5.90;;
43519;SDS011;46848;51.980;5.918;2023-11-19T10:30:20;31.27;;;5.63;;
43519;SDS011;46848;51.980;5.918;2023-11-19T10:33:04;30.00;;;6.45;;
43519;SDS011;46848;51.980;5.918;2023-11-19T10:35:35;24.00;;;5.05;;
43519;SDS011;46848;51.980;5.918;2023-11-19T10:38:15;34.97;;;6.55;;
43519;SDS011;46848;51.980;5.918;2023-11-19T10:40:41;29.88;;;5.95;;
43519;SDS011;46848;51.980;5.918;2023-11-19T10:43:07;35.65;;;6.38;;
43519;SDS011;46848;51.980;5.918;2023-11-19T10:45:34;26.70;;;5.95;;
43519;SDS011;46848;51.980;5.918;2023-11-19T10:48:01;32.03;;;5.35;;
43519;SDS011;46848;51.980;5.918;2023-11-19T10:50:38;30.10;;;6.88;;
43519;SDS011;46848;51.980;5.918;2023-11-19T10:53:05;29.17;;;6.03;;
43519;SDS011;46848;51.980;5.918;2023-11-19T10:55:34;30.90;;;5.97;;
43519;SDS011;46848;51.980;5.918;2023-11-19T10:58:02;23.90;;;5.00;;
43519;SDS011;46848;51.980;5.918;2023-11-19T11:03:16;20.52;;;4.63;;
43519;SDS011;46848;51.980;5.918;2023-11-19T11:05:47;26.33;;;5.22;;
43519;SDS011;46848;51.980;5.918;2023-11-19T11:08:14;26.75;;;4.85;;
43519;SDS011;46848;51.980;5.918;2023-11-19T11:11:02;26.15;;;5.35;;
43519;SDS011;46848;51.980;5.918;2023-11-19T11:13:27;32.78;;;5.43;;
43519;SDS011;46848;51.980;5.918;2023-11-19T11:15:54;29.27;;;5.82;;
43519;SDS011;46848;51.980;5.918;2023-11-19T11:18:22;17.85;;;3.97;;
43519;SDS011;46848;51.980;5.918;2023-11-19T11:20:49;28.08;;;5.75;;
43519;SDS011;46848;51.980;5.918;2023-11-19T11:29:10;18.23;;;4.43;;
43519;SDS011;46848;51.980;5.918;2023-11-19T11:32:01;29.52;;;5.22;;
43519;SDS011;46848;51.980;5.918;2023-11-19T11:37:53;25.48;;;5.35;;
43519;SDS011;46848;51.980;5.918;2023-11-19T11:40:25;27.65;;;4.93;;
43519;SDS011;46848;51.980;5.918;2023-11-19T11:42:51;20.95;;;4.68;;
43519;SDS011;46848;51.980;5.918;2023-11-19T11:45:18;28.40;;;6.05;;
43519;SDS011;46848;51.980;5.918;2023-11-19T11:50:19;22.30;;;4.70;;
43519;SDS011;46848;51.980;5.918;2023-11-19T11:56:05;28.15;;;5.68;;
43519;SDS011;46848;51.980;5.918;2023-11-19T11:58:18;21.88;;;4.65;;
43519;SDS011;46848;51.980;5.918;2023-11-19T12:00:44;27.55;;;5.50;;
43519;SDS011;46848;51.980;5.918;2023-11-19T12:03:12;23.00;;;5.65;;
43519;SDS011;46848;51.980;5.918;2023-11-19T12:05:41;24.83;;;5.88;;
43519;SDS011;46848;51.980;5.918;2023-11-19T12:08:09;25.90;;;5.32;;
43519;SDS011;46848;51.980;5.918;2023-11-19T12:10:37;24.55;;;5.50;;
43519;SDS011;46848;51.980;5.918;2023-11-19T12:13:09;21.30;;;4.78;;
43519;SDS011;46848;51.980;5.918;2023-11-19T12:18:21;26.98;;;4.30;;
43519;SDS011;46848;51.980;5.918;2023-11-19T12:20:51;27.60;;;4.95;;
43519;SDS011;46848;51.980;5.918;2023-11-19T12:23:17;21.83;;;4.50;;
43519;SDS011;46848;51.980;5.918;2023-11-19T12:25:43;20.55;;;4.38;;
43519;SDS011;46848;51.980;5.918;2023-11-19T12:28:16;18.58;;;3.35;;
43519;SDS011;46848;51.980;5.918;2023-11-19T12:33:09;21.77;;;4.40;;
43519;SDS011;46848;51.980;5.918;2023-11-19T12:35:41;15.40;;;3.53;;
43519;SDS011;46848;51.980;5.918;2023-11-19T12:38:08;15.18;;;3.75;;
43519;SDS011;46848;51.980;5.918;2023-11-19T12:40:47;13.73;;;3.72;;
43519;SDS011;46848;51.980;5.918;2023-11-19T12:43:27;15.07;;;4.18;;
43519;SDS011;46848;51.980;5.918;2023-11-19T12:45:52;20.90;;;4.68;;
43519;SDS011;46848;51.980;5.918;2023-11-19T12:48:18;15.77;;;3.58;;
43519;SDS011;46848;51.980;5.918;2023-11-19T12:50:53;17.85;;;5.13;;
43519;SDS011;46848;51.980;5.918;2023-11-19T12:53:21;15.73;;;3.60;;
43519;SDS011;46848;51.980;5.918;2023-11-19T12:55:48;22.42;;;4.47;;
43519;SDS011;46848;51.980;5.918;2023-11-19T13:01:05;16.02;;;3.22;;
43519;SDS011;46848;51.980;5.918;2023-11-19T13:03:32;16.75;;;3.72;;
43519;SDS011;46848;51.980;5.918;2023-11-19T13:06:04;17.58;;;4.05;;
43519;SDS011;46848;51.980;5.918;2023-11-19T13:11:06;20.60;;;4.30;;
43519;SDS011;46848;51.980;5.918;2023-11-19T13:16:20;17.95;;;3.95;;
43519;SDS011;46848;51.980;5.918;2023-11-19T13:18:46;21.75;;;4.75;;
43519;SDS011;46848;51.980;5.918;2023-11-19T13:21:12;17.15;;;3.92;;
43519;SDS011;46848;51.980;5.918;2023-11-19T13:23:38;20.88;;;4.10;;
43519;SDS011;46848;51.980;5.918;2023-11-19T13:26:04;20.77;;;4.72;;
43519;SDS011;46848;51.980;5.918;2023-11-19T13:28:29;17.13;;;3.38;;
43519;SDS011;46848;51.980;5.918;2023-11-19T13:30:55;18.75;;;4.63;;
43519;SDS011;46848;51.980;5.918;2023-11-19T13:33:21;17.35;;;4.20;;
43519;SDS011;46848;51.980;5.918;2023-11-19T13:35:47;20.77;;;3.75;;
43519;SDS011;46848;51.980;5.918;2023-11-19T13:38:12;26.30;;;4.75;;
43519;SDS011;46848;51.980;5.918;2023-11-19T13:40:38;21.55;;;4.55;;
43519;SDS011;46848;51.980;5.918;2023-11-19T13:43:04;19.48;;;4.10;;
43519;SDS011;46848;51.980;5.918;2023-11-19T13:45:30;24.38;;;4.70;;
43519;SDS011;46848;51.980;5.918;2023-11-19T13:47:55;18.05;;;3.90;;
43519;SDS011;46848;51.980;5.918;2023-11-19T13:50:21;19.42;;;4.15;;
43519;SDS011;46848;51.980;5.918;2023-11-19T13:52:48;17.65;;;3.90;;
43519;SDS011;46848;51.980;5.918;2023-11-19T13:55:13;20.00;;;3.95;;
43519;SDS011;46848;51.980;5.918;2023-11-19T13:57:40;24.67;;;4.72;;
43519;SDS011;46848;51.980;5.918;2023-11-19T14:00:07;23.42;;;4.88;;
43519;SDS011;46848;51.980;5.918;2023-11-19T14:02:44;21.70;;;3.63;;
43519;SDS011;46848;51.980;5.918;2023-11-19T14:05:13;16.00;;;3.35;;
43519;SDS011;46848;51.980;5.918;2023-11-19T14:07:42;20.95;;;4.57;;
43519;SDS011;46848;51.980;5.918;2023-11-19T14:10:08;23.40;;;7.15;;
43519;SDS011;46848;51.980;5.918;2023-11-19T14:12:36;21.52;;;5.40;;
43519;SDS011;46848;51.980;5.918;2023-11-19T14:15:02;21.80;;;7.53;;
43519;SDS011;46848;51.980;5.918;2023-11-19T14:17:31;25.83;;;5.55;;
43519;SDS011;46848;51.980;5.918;2023-11-19T14:19:57;21.25;;;5.10;;
43519;SDS011;46848;51.980;5.918;2023-11-19T14:22:23;20.92;;;5.28;;
43519;SDS011;46848;51.980;5.918;2023-11-19T14:24:49;25.80;;;5.63;;
43519;SDS011;46848;51.980;5.918;2023-11-19T14:27:15;21.60;;;4.63;;
43519;SDS011;46848;51.980;5.918;2023-11-19T14:29:42;24.90;;;4.70;;
43519;SDS011;46848;51.980;5.918;2023-11-19T14:32:08;18.75;;;4.75;;
43519;SDS011;46848;51.980;5.918;2023-11-19T14:34:33;28.10;;;5.50;;
43519;SDS011;46848;51.980;5.918;2023-11-19T14:36:59;23.67;;;5.35;;
43519;SDS011;46848;51.980;5.918;2023-11-19T14:39:25;22.98;;;4.72;;
43519;SDS011;46848;51.980;5.918;2023-11-19T14:41:51;31.52;;;4.95;;
43519;SDS011;46848;51.980;5.918;2023-11-19T14:44:18;17.65;;;3.95;;
43519;SDS011;46848;51.980;5.918;2023-11-19T14:46:45;20.25;;;3.78;;
43519;SDS011;46848;51.980;5.918;2023-11-19T14:49:12;22.08;;;3.85;;
43519;SDS011;46848;51.980;5.918;2023-11-19T14:51:39;22.77;;;5.10;;
43519;SDS011;46848;51.980;5.918;2023-11-19T14:54:04;25.40;;;3.78;;
43519;SDS011;46848;51.980;5.918;2023-11-19T14:56:30;21.58;;;4.25;;
43519;SDS011;46848;51.980;5.918;2023-11-19T14:58:56;20.23;;;3.85;;
43519;SDS011;46848;51.980;5.918;2023-11-19T15:01:22;20.25;;;3.70;;
43519;SDS011;46848;51.980;5.918;2023-11-19T15:03:47;19.70;;;4.63;;
43519;SDS011;46848;51.980;5.918;2023-11-19T15:06:13;24.27;;;3.72;;
43519;SDS011;46848;51.980;5.918;2023-11-19T15:08:40;22.23;;;3.88;;
43519;SDS011;46848;51.980;5.918;2023-11-19T15:11:06;19.83;;;4.10;;
43519;SDS011;46848;51.980;5.918;2023-11-19T15:13:34;19.48;;;4.47;;